sensor_id;sensor_type;location;lat;lon;timestamp;temperature;humidity
71155;DHT22;59375;53.216;5.728;2022-09-17T00:01:05;11.90;99.90
71155;DHT22;59375;53.216;5.728;2022-09-17T00:03:31;11.80;99.90
71155;DHT22;59375;53.216;5.728;2022-09-17T00:06:07;11.90;99.90
71155;DHT22;59375;53.216;5.728;2022-09-17T00:08:34;11.90;99.90
71155;DHT22;59375;53.216;5.728;2022-09-17T00:11:12;12.00;99.90
71155;DHT22;59375;53.216;5.728;2022-09-17T00:13:39;12.10;99.90
71155;DHT22;59375;53.216;5.728;2022-09-17T00:16:05;12.10;99.90
71155;DHT22;59375;53.216;5.728;2022-09-17T00:18:30;12.10;99.90
71155;DHT22;59375;53.216;5.728;2022-09-17T00:20:56;12.10;99.90
71155;DHT22;59375;53.216;5.728;2022-09-17T00:23:21;12.00;99.90
71155;DHT22;59375;53.216;5.728;2022-09-17T00:25:47;11.90;99.90
71155;DHT22;59375;53.216;5.728;2022-09-17T00:28:13;11.80;99.90
71155;DHT22;59375;53.216;5.728;2022-09-17T00:30:41;11.90;99.90
71155;DHT22;59375;53.216;5.728;2022-09-17T00:33:07;11.90;99.90
71155;DHT22;59375;53.216;5.728;2022-09-17T00:35:34;11.90;99.90
71155;DHT22;59375;53.216;5.728;2022-09-17T00:37:59;11.80;99.90
71155;DHT22;59375;53.216;5.728;2022-09-17T00:40:25;11.70;99.90
71155;DHT22;59375;53.216;5.728;2022-09-17T00:42:51;11.70;99.90
71155;DHT22;59375;53.216;5.728;2022-09-17T00:45:18;11.70;99.90
71155;DHT22;59375;53.216;5.728;2022-09-17T00:50:34;11.50;99.90
71155;DHT22;59375;53.216;5.728;2022-09-17T00:53:06;11.40;99.90
71155;DHT22;59375;53.216;5.728;2022-09-17T00:55:39;11.30;99.90
71155;DHT22;59375;53.216;5.728;2022-09-17T00:58:10;11.40;99.90
71155;DHT22;59375;53.216;5.728;2022-09-17T01:00:36;11.40;99.90
71155;DHT22;59375;53.216;5.728;2022-09-17T01:03:02;11.50;99.90
71155;DHT22;59375;53.216;5.728;2022-09-17T01:05:57;11.50;99.90
71155;DHT22;59375;53.216;5.728;2022-09-17T01:16:53;11.50;99.90
71155;DHT22;59375;53.216;5.728;2022-09-17T01:19:45;11.40;99.90
71155;DHT22;59375;53.216;5.728;2022-09-17T01:22:39;11.30;99.90
71155;DHT22;59375;53.216;5.728;2022-09-17T01:25:31;11.30;99.90
71155;DHT22;59375;53.216;5.728;2022-09-17T01:28:07;11.30;99.90
71155;DHT22;59375;53.216;5.728;2022-09-17T01:30:53;11.30;99.90
71155;DHT22;59375;53.216;5.728;2022-09-17T01:36:18;11.50;99.90
71155;DHT22;59375;53.216;5.728;2022-09-17T01:38:53;11.70;99.90
71155;DHT22;59375;53.216;5.728;2022-09-17T01:41:25;11.70;99.90
71155;DHT22;59375;53.216;5.728;2022-09-17T01:43:58;11.70;99.90
71155;DHT22;59375;53.216;5.728;2022-09-17T01:46:30;11.80;99.90
71155;DHT22;59375;53.216;5.728;2022-09-17T01:49:02;11.80;99.90
71155;DHT22;59375;53.216;5.728;2022-09-17T01:51:38;11.80;99.90
71155;DHT22;59375;53.216;5.728;2022-09-17T01:57:05;11.90;99.90
71155;DHT22;59375;53.216;5.728;2022-09-17T01:59:37;11.80;99.90
71155;DHT22;59375;53.216;5.728;2022-09-17T02:02:11;11.80;99.90
71155;DHT22;59375;53.216;5.728;2022-09-17T02:04:57;11.80;99.90
71155;DHT22;59375;53.216;5.728;2022-09-17T02:07:24;11.80;99.90
71155;DHT22;59375;53.216;5.728;2022-09-17T02:12:28;11.80;99.90
71155;DHT22;59375;53.216;5.728;2022-09-17T02:14:58;11.90;99.90
71155;DHT22;59375;53.216;5.728;2022-09-17T02:17:33;11.90;99.90
71155;DHT22;59375;53.216;5.728;2022-09-17T02:20:01;11.90;99.90
71155;DHT22;59375;53.216;5.728;2022-09-17T02:22:58;12.00;99.90
71155;DHT22;59375;53.216;5.728;2022-09-17T02:25:36;12.00;99.90
71155;DHT22;59375;53.216;5.728;2022-09-17T02:29:04;12.10;99.90
71155;DHT22;59375;53.216;5.728;2022-09-17T02:31:03;12.10;99.90
71155;DHT22;59375;53.216;5.728;2022-09-17T02:33:31;12.10;99.90
71155;DHT22;59375;53.216;5.728;2022-09-17T02:35:57;12.00;99.90
71155;DHT22;59375;53.216;5.728;2022-09-17T02:38:28;11.90;99.90
71155;DHT22;59375;53.216;5.728;2022-09-17T02:41:05;11.90;99.90
71155;DHT22;59375;53.216;5.728;2022-09-17T02:44:09;11.90;99.90
71155;DHT22;59375;53.216;5.728;2022-09-17T02:55:55;11.60;99.90
71155;DHT22;59375;53.216;5.728;2022-09-17T02:58:32;11.50;99.90
71155;DHT22;59375;53.216;5.728;2022-09-17T03:01:05;11.40;99.90
71155;DHT22;59375;53.216;5.728;2022-09-17T03:03:36;11.30;99.90
71155;DHT22;59375;53.216;5.728;2022-09-17T03:06:04;11.30;99.90
71155;DHT22;59375;53.216;5.728;2022-09-17T03:08:39;11.30;99.90
71155;DHT22;59375;53.216;5.728;2022-09-17T03:11:06;11.20;99.90
71155;DHT22;59375;53.216;5.728;2022-09-17T03:13:34;11.20;99.90
71155;DHT22;59375;53.216;5.728;2022-09-17T03:16:01;11.30;99.90
71155;DHT22;59375;53.216;5.728;2022-09-17T03:18:27;11.40;99.90
71155;DHT22;59375;53.216;5.728;2022-09-17T03:20:52;11.50;99.90
71155;DHT22;59375;53.216;5.728;2022-09-17T03:23:18;11.50;99.90
71155;DHT22;59375;53.216;5.728;2022-09-17T03:25:45;11.60;99.90
71155;DHT22;59375;53.216;5.728;2022-09-17T03:28:10;11.70;99.90
71155;DHT22;59375;53.216;5.728;2022-09-17T03:30:36;11.70;99.90
71155;DHT22;59375;53.216;5.728;2022-09-17T03:33:01;11.70;99.90
71155;DHT22;59375;53.216;5.728;2022-09-17T03:35:27;11.70;99.90
71155;DHT22;59375;53.216;5.728;2022-09-17T03:37:52;11.70;99.90
71155;DHT22;59375;53.216;5.728;2022-09-17T03:40:18;11.80;99.90
71155;DHT22;59375;53.216;5.728;2022-09-17T03:42:44;11.70;99.90
71155;DHT22;59375;53.216;5.728;2022-09-17T03:45:10;11.80;99.90
71155;DHT22;59375;53.216;5.728;2022-09-17T03:47:36;11.80;99.90
71155;DHT22;59375;53.216;5.728;2022-09-17T03:50:03;11.80;99.90
71155;DHT22;59375;53.216;5.728;2022-09-17T03:52:29;11.80;99.90
71155;DHT22;59375;53.216;5.728;2022-09-17T03:54:54;11.90;99.90
71155;DHT22;59375;53.216;5.728;2022-09-17T03:57:20;11.90;99.90
71155;DHT22;59375;53.216;5.728;2022-09-17T03:59:47;11.90;99.90
71155;DHT22;59375;53.216;5.728;2022-09-17T04:02:13;11.80;99.90
71155;DHT22;59375;53.216;5.728;2022-09-17T04:04:38;11.40;99.90
71155;DHT22;59375;53.216;5.728;2022-09-17T04:07:04;11.20;99.90
71155;DHT22;59375;53.216;5.728;2022-09-17T04:09:29;11.00;99.90
71155;DHT22;59375;53.216;5.728;2022-09-17T04:11:55;10.90;99.90
71155;DHT22;59375;53.216;5.728;2022-09-17T04:14:21;10.80;99.90
71155;DHT22;59375;53.216;5.728;2022-09-17T04:16:46;10.80;99.90
71155;DHT22;59375;53.216;5.728;2022-09-17T04:19:12;10.70;99.90
71155;DHT22;59375;53.216;5.728;2022-09-17T04:21:37;10.60;99.90
71155;DHT22;59375;53.216;5.728;2022-09-17T04:24:03;10.50;99.90
71155;DHT22;59375;53.216;5.728;2022-09-17T04:26:28;10.50;99.90
71155;DHT22;59375;53.216;5.728;2022-09-17T04:28:54;10.50;99.90
71155;DHT22;59375;53.216;5.728;2022-09-17T04:31:20;10.50;99.90
71155;DHT22;59375;53.216;5.728;2022-09-17T04:33:47;10.60;99.90
71155;DHT22;59375;53.216;5.728;2022-09-17T04:36:12;10.70;99.90
71155;DHT22;59375;53.216;5.728;2022-09-17T04:38:38;10.70;99.90
71155;DHT22;59375;53.216;5.728;2022-09-17T04:41:06;10.80;99.90
71155;DHT22;59375;53.216;5.728;2022-09-17T04:43:31;10.90;99.90
71155;DHT22;59375;53.216;5.728;2022-09-17T04:45:57;10.90;99.90
71155;DHT22;59375;53.216;5.728;2022-09-17T04:48:23;11.00;99.90
71155;DHT22;59375;53.216;5.728;2022-09-17T04:50:48;11.10;99.90
71155;DHT22;59375;53.216;5.728;2022-09-17T04:53:14;11.20;99.90
71155;DHT22;59375;53.216;5.728;2022-09-17T04:55:39;11.30;99.90
71155;DHT22;59375;53.216;5.728;2022-09-17T04:58:06;11.40;99.90
71155;DHT22;59375;53.216;5.728;2022-09-17T05:00:32;11.40;99.90
71155;DHT22;59375;53.216;5.728;2022-09-17T05:02:59;11.40;99.90
71155;DHT22;59375;53.216;5.728;2022-09-17T05:05:25;11.50;99.90
71155;DHT22;59375;53.216;5.728;2022-09-17T05:07:51;11.40;99.90
71155;DHT22;59375;53.216;5.728;2022-09-17T05:10:18;11.40;99.90
71155;DHT22;59375;53.216;5.728;2022-09-17T05:12:52;11.40;99.90
71155;DHT22;59375;53.216;5.728;2022-09-17T05:15:18;11.40;99.90
71155;DHT22;59375;53.216;5.728;2022-09-17T05:17:44;11.40;99.90
71155;DHT22;59375;53.216;5.728;2022-09-17T05:20:10;11.40;99.90
71155;DHT22;59375;53.216;5.728;2022-09-17T05:22:46;11.40;99.90
71155;DHT22;59375;53.216;5.728;2022-09-17T05:25:13;11.40;99.90
71155;DHT22;59375;53.216;5.728;2022-09-17T05:27:40;11.40;99.90
71155;DHT22;59375;53.216;5.728;2022-09-17T05:30:06;11.40;99.90
71155;DHT22;59375;53.216;5.728;2022-09-17T05:32:33;11.40;99.90
71155;DHT22;59375;53.216;5.728;2022-09-17T05:34:58;11.50;99.90
71155;DHT22;59375;53.216;5.728;2022-09-17T05:37:24;11.60;99.90
71155;DHT22;59375;53.216;5.728;2022-09-17T05:39:50;11.50;99.90
71155;DHT22;59375;53.216;5.728;2022-09-17T05:42:16;11.40;99.90
71155;DHT22;59375;53.216;5.728;2022-09-17T05:44:41;11.40;99.90
71155;DHT22;59375;53.216;5.728;2022-09-17T05:47:07;11.30;99.90
71155;DHT22;59375;53.216;5.728;2022-09-17T05:49:32;11.20;99.90
71155;DHT22;59375;53.216;5.728;2022-09-17T05:51:58;11.10;99.90
71155;DHT22;59375;53.216;5.728;2022-09-17T05:54:23;11.10;99.90
71155;DHT22;59375;53.216;5.728;2022-09-17T05:56:52;11.20;99.90
71155;DHT22;59375;53.216;5.728;2022-09-17T05:59:18;11.20;99.90
71155;DHT22;59375;53.216;5.728;2022-09-17T06:01:44;11.30;99.90
71155;DHT22;59375;53.216;5.728;2022-09-17T06:04:10;11.50;99.90
71155;DHT22;59375;53.216;5.728;2022-09-17T06:06:35;11.60;99.90
71155;DHT22;59375;53.216;5.728;2022-09-17T06:09:04;11.60;99.90
71155;DHT22;59375;53.216;5.728;2022-09-17T06:11:29;11.60;99.90
71155;DHT22;59375;53.216;5.728;2022-09-17T06:13:55;11.50;99.90
71155;DHT22;59375;53.216;5.728;2022-09-17T06:16:21;11.40;99.90
71155;DHT22;59375;53.216;5.728;2022-09-17T06:18:47;11.40;99.90
71155;DHT22;59375;53.216;5.728;2022-09-17T06:21:14;11.40;99.90
71155;DHT22;59375;53.216;5.728;2022-09-17T06:23:40;11.50;99.90
71155;DHT22;59375;53.216;5.728;2022-09-17T06:26:07;11.50;99.90
71155;DHT22;59375;53.216;5.728;2022-09-17T06:28:33;11.60;99.90
71155;DHT22;59375;53.216;5.728;2022-09-17T06:31:00;11.70;99.90
71155;DHT22;59375;53.216;5.728;2022-09-17T06:33:26;12.00;99.90
71155;DHT22;59375;53.216;5.728;2022-09-17T06:35:56;12.00;99.90
71155;DHT22;59375;53.216;5.728;2022-09-17T06:38:24;11.90;99.90
71155;DHT22;59375;53.216;5.728;2022-09-17T06:40:50;11.90;99.90
71155;DHT22;59375;53.216;5.728;2022-09-17T06:43:16;11.80;99.90
71155;DHT22;59375;53.216;5.728;2022-09-17T06:45:42;11.80;99.90
71155;DHT22;59375;53.216;5.728;2022-09-17T06:48:07;11.70;99.90
71155;DHT22;59375;53.216;5.728;2022-09-17T06:50:33;11.70;99.90
71155;DHT22;59375;53.216;5.728;2022-09-17T06:52:59;11.70;99.90
71155;DHT22;59375;53.216;5.728;2022-09-17T06:55:25;11.50;99.90
71155;DHT22;59375;53.216;5.728;2022-09-17T06:57:50;10.50;99.90
71155;DHT22;59375;53.216;5.728;2022-09-17T07:00:16;10.10;99.90
71155;DHT22;59375;53.216;5.728;2022-09-17T07:02:42;9.80;99.90
71155;DHT22;59375;53.216;5.728;2022-09-17T07:05:07;9.60;99.90
71155;DHT22;59375;53.216;5.728;2022-09-17T07:07:33;9.50;99.90
71155;DHT22;59375;53.216;5.728;2022-09-17T07:10:00;9.60;99.90
71155;DHT22;59375;53.216;5.728;2022-09-17T07:12:26;9.80;99.90
71155;DHT22;59375;53.216;5.728;2022-09-17T07:14:53;9.90;99.90
71155;DHT22;59375;53.216;5.728;2022-09-17T07:17:20;10.10;99.90
71155;DHT22;59375;53.216;5.728;2022-09-17T07:19:47;10.20;99.90
71155;DHT22;59375;53.216;5.728;2022-09-17T07:22:12;10.40;99.90
71155;DHT22;59375;53.216;5.728;2022-09-17T07:24:38;10.70;99.90
71155;DHT22;59375;53.216;5.728;2022-09-17T07:27:04;11.00;99.90
71155;DHT22;59375;53.216;5.728;2022-09-17T07:29:29;11.30;99.90
71155;DHT22;59375;53.216;5.728;2022-09-17T07:31:56;11.40;99.90
71155;DHT22;59375;53.216;5.728;2022-09-17T07:34:23;11.40;99.90
71155;DHT22;59375;53.216;5.728;2022-09-17T07:36:50;11.40;99.90
71155;DHT22;59375;53.216;5.728;2022-09-17T07:39:16;11.30;99.90
71155;DHT22;59375;53.216;5.728;2022-09-17T07:41:41;11.30;99.90
71155;DHT22;59375;53.216;5.728;2022-09-17T07:44:07;11.30;99.90
71155;DHT22;59375;53.216;5.728;2022-09-17T07:46:34;11.20;99.90
71155;DHT22;59375;53.216;5.728;2022-09-17T07:49:00;11.70;99.90
71155;DHT22;59375;53.216;5.728;2022-09-17T07:51:26;12.20;99.90
71155;DHT22;59375;53.216;5.728;2022-09-17T07:53:54;12.10;99.90
71155;DHT22;59375;53.216;5.728;2022-09-17T07:56:21;12.00;99.90
71155;DHT22;59375;53.216;5.728;2022-09-17T07:58:47;11.80;99.90
71155;DHT22;59375;53.216;5.728;2022-09-17T08:01:13;11.60;99.90
71155;DHT22;59375;53.216;5.728;2022-09-17T08:03:41;11.50;99.90
71155;DHT22;59375;53.216;5.728;2022-09-17T08:06:10;11.40;99.90
71155;DHT22;59375;53.216;5.728;2022-09-17T08:08:36;11.50;99.90
71155;DHT22;59375;53.216;5.728;2022-09-17T08:11:09;11.60;99.90
71155;DHT22;59375;53.216;5.728;2022-09-17T08:13:35;11.80;99.90
71155;DHT22;59375;53.216;5.728;2022-09-17T08:16:06;11.90;99.90
71155;DHT22;59375;53.216;5.728;2022-09-17T08:18:32;12.00;99.90
71155;DHT22;59375;53.216;5.728;2022-09-17T08:20:59;12.00;99.90
71155;DHT22;59375;53.216;5.728;2022-09-17T08:23:26;11.90;99.90
71155;DHT22;59375;53.216;5.728;2022-09-17T08:25:56;11.80;99.90
71155;DHT22;59375;53.216;5.728;2022-09-17T08:28:23;11.80;99.90
71155;DHT22;59375;53.216;5.728;2022-09-17T08:30:50;11.90;99.90
71155;DHT22;59375;53.216;5.728;2022-09-17T08:33:17;12.00;99.90
71155;DHT22;59375;53.216;5.728;2022-09-17T08:35:50;12.20;99.90
71155;DHT22;59375;53.216;5.728;2022-09-17T08:38:15;12.50;99.90
71155;DHT22;59375;53.216;5.728;2022-09-17T08:43:30;12.90;99.90
71155;DHT22;59375;53.216;5.728;2022-09-17T08:45:58;13.10;99.90
71155;DHT22;59375;53.216;5.728;2022-09-17T08:48:33;13.20;99.90
71155;DHT22;59375;53.216;5.728;2022-09-17T08:51:09;13.50;99.90
71155;DHT22;59375;53.216;5.728;2022-09-17T08:53:49;13.70;99.90
71155;DHT22;59375;53.216;5.728;2022-09-17T08:56:20;13.60;99.90
71155;DHT22;59375;53.216;5.728;2022-09-17T09:04:46;13.70;99.90
71155;DHT22;59375;53.216;5.728;2022-09-17T09:07:28;13.80;99.90
71155;DHT22;59375;53.216;5.728;2022-09-17T09:10:19;13.60;99.90
71155;DHT22;59375;53.216;5.728;2022-09-17T09:12:49;13.10;99.90
71155;DHT22;59375;53.216;5.728;2022-09-17T09:15:32;12.80;99.90
71155;DHT22;59375;53.216;5.728;2022-09-17T09:18:09;12.60;99.90
71155;DHT22;59375;53.216;5.728;2022-09-17T09:21:10;12.70;99.90
71155;DHT22;59375;53.216;5.728;2022-09-17T09:24:07;13.00;99.90
71155;DHT22;59375;53.216;5.728;2022-09-17T09:30:03;13.60;99.90
71155;DHT22;59375;53.216;5.728;2022-09-17T09:35:18;13.70;99.90
71155;DHT22;59375;53.216;5.728;2022-09-17T09:38:05;13.40;99.90
71155;DHT22;59375;53.216;5.728;2022-09-17T09:41:00;13.10;99.90
71155;DHT22;59375;53.216;5.728;2022-09-17T09:43:40;12.80;99.90
71155;DHT22;59375;53.216;5.728;2022-09-17T09:49:00;13.00;99.90
71155;DHT22;59375;53.216;5.728;2022-09-17T09:52:01;13.30;99.90
71155;DHT22;59375;53.216;5.728;2022-09-17T09:57:36;13.30;99.90
71155;DHT22;59375;53.216;5.728;2022-09-17T10:00:27;13.30;99.90
71155;DHT22;59375;53.216;5.728;2022-09-17T10:05:26;13.60;99.90
71155;DHT22;59375;53.216;5.728;2022-09-17T10:07:52;13.90;99.90
71155;DHT22;59375;53.216;5.728;2022-09-17T10:10:18;13.80;99.90
71155;DHT22;59375;53.216;5.728;2022-09-17T10:12:43;13.50;99.90
71155;DHT22;59375;53.216;5.728;2022-09-17T10:15:24;13.30;99.90
71155;DHT22;59375;53.216;5.728;2022-09-17T10:18:10;13.30;99.90
71155;DHT22;59375;53.216;5.728;2022-09-17T10:20:48;13.20;99.90
71155;DHT22;59375;53.216;5.728;2022-09-17T10:23:14;13.20;99.90
71155;DHT22;59375;53.216;5.728;2022-09-17T10:25:41;13.10;99.90
71155;DHT22;59375;53.216;5.728;2022-09-17T10:31:00;12.90;99.90
71155;DHT22;59375;53.216;5.728;2022-09-17T10:33:27;12.80;99.90
71155;DHT22;59375;53.216;5.728;2022-09-17T10:36:12;12.60;99.90
71155;DHT22;59375;53.216;5.728;2022-09-17T10:38:43;12.40;99.90
71155;DHT22;59375;53.216;5.728;2022-09-17T10:43:39;12.20;99.90
71155;DHT22;59375;53.216;5.728;2022-09-17T10:46:08;12.00;99.90
71155;DHT22;59375;53.216;5.728;2022-09-17T10:48:40;11.90;99.90
71155;DHT22;59375;53.216;5.728;2022-09-17T10:51:07;12.00;99.90
71155;DHT22;59375;53.216;5.728;2022-09-17T10:56:36;12.70;99.90
71155;DHT22;59375;53.216;5.728;2022-09-17T11:04:33;15.30;99.90
71155;DHT22;59375;53.216;5.728;2022-09-17T11:07:29;13.40;99.90
71155;DHT22;59375;53.216;5.728;2022-09-17T11:12:55;11.60;99.90
71155;DHT22;59375;53.216;5.728;2022-09-17T11:15:55;11.40;99.90
71155;DHT22;59375;53.216;5.728;2022-09-17T11:29:16;13.10;99.90
71155;DHT22;59375;53.216;5.728;2022-09-17T11:32:31;14.40;99.90
71155;DHT22;59375;53.216;5.728;2022-09-17T11:37:45;16.00;99.20
71155;DHT22;59375;53.216;5.728;2022-09-17T11:45:39;16.90;96.50
71155;DHT22;59375;53.216;5.728;2022-09-17T11:48:26;17.00;95.10
71155;DHT22;59375;53.216;5.728;2022-09-17T11:51:13;17.10;96.30
71155;DHT22;59375;53.216;5.728;2022-09-17T11:53:45;17.20;95.00
71155;DHT22;59375;53.216;5.728;2022-09-17T11:56:37;17.30;94.80
71155;DHT22;59375;53.216;5.728;2022-09-17T11:59:39;17.70;94.50
71155;DHT22;59375;53.216;5.728;2022-09-17T12:02:26;17.60;92.60
71155;DHT22;59375;53.216;5.728;2022-09-17T12:05:05;17.60;91.90
71155;DHT22;59375;53.216;5.728;2022-09-17T12:15:45;17.80;88.60
71155;DHT22;59375;53.216;5.728;2022-09-17T12:18:53;17.80;88.80
71155;DHT22;59375;53.216;5.728;2022-09-17T12:21:25;17.90;90.10
71155;DHT22;59375;53.216;5.728;2022-09-17T12:30:33;15.60;96.00
71155;DHT22;59375;53.216;5.728;2022-09-17T12:38:23;14.20;99.90
71155;DHT22;59375;53.216;5.728;2022-09-17T12:43:58;15.20;99.90
71155;DHT22;59375;53.216;5.728;2022-09-17T12:46:58;14.90;99.00
71155;DHT22;59375;53.216;5.728;2022-09-17T12:49:45;14.70;99.90
71155;DHT22;59375;53.216;5.728;2022-09-17T13:00:39;15.80;99.90
71155;DHT22;59375;53.216;5.728;2022-09-17T13:11:42;15.80;99.30
71155;DHT22;59375;53.216;5.728;2022-09-17T13:17:01;14.50;99.90
71155;DHT22;59375;53.216;5.728;2022-09-17T13:19:49;14.30;99.90
71155;DHT22;59375;53.216;5.728;2022-09-17T13:22:21;14.40;99.90
71155;DHT22;59375;53.216;5.728;2022-09-17T13:25:09;14.50;99.90
71155;DHT22;59375;53.216;5.728;2022-09-17T13:27:39;15.40;99.90
71155;DHT22;59375;53.216;5.728;2022-09-17T13:30:13;16.40;99.90
71155;DHT22;59375;53.216;5.728;2022-09-17T13:37:32;14.60;99.90
71155;DHT22;59375;53.216;5.728;2022-09-17T13:39:59;14.10;99.90
71155;DHT22;59375;53.216;5.728;2022-09-17T13:42:28;13.50;99.90
71155;DHT22;59375;53.216;5.728;2022-09-17T13:45:12;13.30;99.90
71155;DHT22;59375;53.216;5.728;2022-09-17T13:50:33;13.00;99.90
71155;DHT22;59375;53.216;5.728;2022-09-17T13:53:07;12.70;99.90
71155;DHT22;59375;53.216;5.728;2022-09-17T13:55:35;12.50;99.90
71155;DHT22;59375;53.216;5.728;2022-09-17T13:58:23;12.40;99.90
71155;DHT22;59375;53.216;5.728;2022-09-17T14:01:11;12.30;99.90
71155;DHT22;59375;53.216;5.728;2022-09-17T14:21:39;13.80;99.90
71155;DHT22;59375;53.216;5.728;2022-09-17T14:24:22;14.00;99.90
71155;DHT22;59375;53.216;5.728;2022-09-17T14:30:03;14.30;99.90
71155;DHT22;59375;53.216;5.728;2022-09-17T14:35:21;14.50;99.90
71155;DHT22;59375;53.216;5.728;2022-09-17T14:37:51;14.50;99.90
71155;DHT22;59375;53.216;5.728;2022-09-17T14:40:19;14.60;99.90
71155;DHT22;59375;53.216;5.728;2022-09-17T14:42:48;14.60;99.90
71155;DHT22;59375;53.216;5.728;2022-09-17T14:45:27;14.60;99.90
71155;DHT22;59375;53.216;5.728;2022-09-17T14:48:31;14.60;99.90
71155;DHT22;59375;53.216;5.728;2022-09-17T14:54:28;14.70;99.20
71155;DHT22;59375;53.216;5.728;2022-09-17T14:56:31;14.70;99.00
71155;DHT22;59375;53.216;5.728;2022-09-17T14:58:57;14.80;99.70
71155;DHT22;59375;53.216;5.728;2022-09-17T15:01:28;14.90;99.40
71155;DHT22;59375;53.216;5.728;2022-09-17T15:06:42;14.30;99.90
71155;DHT22;59375;53.216;5.728;2022-09-17T15:09:24;14.20;99.90
71155;DHT22;59375;53.216;5.728;2022-09-17T15:11:53;14.20;99.90
71155;DHT22;59375;53.216;5.728;2022-09-17T15:14:25;14.20;99.90
71155;DHT22;59375;53.216;5.728;2022-09-17T15:16:53;14.40;99.90
71155;DHT22;59375;53.216;5.728;2022-09-17T15:19:41;14.50;99.90
71155;DHT22;59375;53.216;5.728;2022-09-17T15:22:19;14.60;99.90
71155;DHT22;59375;53.216;5.728;2022-09-17T15:25:01;14.70;99.30
71155;DHT22;59375;53.216;5.728;2022-09-17T15:27:37;14.80;99.30
71155;DHT22;59375;53.216;5.728;2022-09-17T15:30:20;14.70;96.30
71155;DHT22;59375;53.216;5.728;2022-09-17T15:32:49;14.60;97.30
71155;DHT22;59375;53.216;5.728;2022-09-17T15:35:17;14.40;97.60
71155;DHT22;59375;53.216;5.728;2022-09-17T15:37:44;14.30;98.70
71155;DHT22;59375;53.216;5.728;2022-09-17T15:42:52;14.30;99.90
71155;DHT22;59375;53.216;5.728;2022-09-17T15:45:31;14.50;99.80
71155;DHT22;59375;53.216;5.728;2022-09-17T15:47:59;14.70;99.80
71155;DHT22;59375;53.216;5.728;2022-09-17T15:50:27;14.70;99.40
71155;DHT22;59375;53.216;5.728;2022-09-17T15:55:45;14.50;99.00
71155;DHT22;59375;53.216;5.728;2022-09-17T15:58:34;14.60;99.20
71155;DHT22;59375;53.216;5.728;2022-09-17T16:08:46;14.40;98.90
71155;DHT22;59375;53.216;5.728;2022-09-17T16:11:17;14.20;99.90
71155;DHT22;59375;53.216;5.728;2022-09-17T16:13:45;13.90;99.90
71155;DHT22;59375;53.216;5.728;2022-09-17T16:16:19;13.60;99.90
71155;DHT22;59375;53.216;5.728;2022-09-17T16:18:46;13.50;99.90
71155;DHT22;59375;53.216;5.728;2022-09-17T16:21:12;13.50;99.90
71155;DHT22;59375;53.216;5.728;2022-09-17T16:23:38;13.60;99.90
71155;DHT22;59375;53.216;5.728;2022-09-17T16:26:04;13.70;99.90
71155;DHT22;59375;53.216;5.728;2022-09-17T16:28:31;13.80;99.90
71155;DHT22;59375;53.216;5.728;2022-09-17T16:30:57;13.80;99.90
71155;DHT22;59375;53.216;5.728;2022-09-17T16:33:23;13.80;99.90
71155;DHT22;59375;53.216;5.728;2022-09-17T16:35:50;13.80;99.90
71155;DHT22;59375;53.216;5.728;2022-09-17T16:38:15;13.80;99.90
71155;DHT22;59375;53.216;5.728;2022-09-17T16:40:43;13.60;99.90
71155;DHT22;59375;53.216;5.728;2022-09-17T16:43:09;13.40;99.90
71155;DHT22;59375;53.216;5.728;2022-09-17T16:45:34;13.20;99.90
71155;DHT22;59375;53.216;5.728;2022-09-17T16:48:00;13.10;99.90
71155;DHT22;59375;53.216;5.728;2022-09-17T16:50:27;12.90;99.90
71155;DHT22;59375;53.216;5.728;2022-09-17T16:52:53;12.80;99.90
71155;DHT22;59375;53.216;5.728;2022-09-17T16:55:19;12.70;99.90
71155;DHT22;59375;53.216;5.728;2022-09-17T16:57:46;12.60;99.90
71155;DHT22;59375;53.216;5.728;2022-09-17T17:00:14;12.50;99.90
71155;DHT22;59375;53.216;5.728;2022-09-17T17:02:42;12.40;99.90
71155;DHT22;59375;53.216;5.728;2022-09-17T17:05:08;12.40;99.90
71155;DHT22;59375;53.216;5.728;2022-09-17T17:07:35;12.30;99.90
71155;DHT22;59375;53.216;5.728;2022-09-17T17:10:02;12.30;99.90
71155;DHT22;59375;53.216;5.728;2022-09-17T17:12:28;12.30;99.90
71155;DHT22;59375;53.216;5.728;2022-09-17T17:14:54;12.40;99.90
71155;DHT22;59375;53.216;5.728;2022-09-17T17:17:19;12.40;99.90
71155;DHT22;59375;53.216;5.728;2022-09-17T17:19:45;12.40;99.90
71155;DHT22;59375;53.216;5.728;2022-09-17T17:22:12;12.30;99.90
71155;DHT22;59375;53.216;5.728;2022-09-17T17:24:38;12.30;99.90
71155;DHT22;59375;53.216;5.728;2022-09-17T17:27:04;12.30;99.90
71155;DHT22;59375;53.216;5.728;2022-09-17T17:29:29;12.40;99.90
71155;DHT22;59375;53.216;5.728;2022-09-17T17:31:55;12.40;99.90
71155;DHT22;59375;53.216;5.728;2022-09-17T17:34:20;12.50;99.90
71155;DHT22;59375;53.216;5.728;2022-09-17T17:36:49;12.60;99.90
71155;DHT22;59375;53.216;5.728;2022-09-17T17:39:15;12.60;99.90
71155;DHT22;59375;53.216;5.728;2022-09-17T17:41:41;12.60;99.90
71155;DHT22;59375;53.216;5.728;2022-09-17T17:44:08;12.50;99.90
71155;DHT22;59375;53.216;5.728;2022-09-17T17:46:37;12.40;99.90
71155;DHT22;59375;53.216;5.728;2022-09-17T17:49:03;12.40;99.90
71155;DHT22;59375;53.216;5.728;2022-09-17T17:51:28;12.30;99.90
71155;DHT22;59375;53.216;5.728;2022-09-17T17:53:54;12.30;99.90
71155;DHT22;59375;53.216;5.728;2022-09-17T17:56:20;12.30;99.90
71155;DHT22;59375;53.216;5.728;2022-09-17T17:58:45;12.30;99.90
71155;DHT22;59375;53.216;5.728;2022-09-17T18:01:17;12.30;99.90
71155;DHT22;59375;53.216;5.728;2022-09-17T18:03:43;12.30;99.90
71155;DHT22;59375;53.216;5.728;2022-09-17T18:06:09;12.20;99.90
71155;DHT22;59375;53.216;5.728;2022-09-17T18:08:36;12.10;99.90
71155;DHT22;59375;53.216;5.728;2022-09-17T18:11:03;12.00;99.90
71155;DHT22;59375;53.216;5.728;2022-09-17T18:13:29;12.00;99.90
71155;DHT22;59375;53.216;5.728;2022-09-17T18:15:57;12.00;99.90
71155;DHT22;59375;53.216;5.728;2022-09-17T18:18:25;11.90;99.90
71155;DHT22;59375;53.216;5.728;2022-09-17T18:20:51;11.80;99.90
71155;DHT22;59375;53.216;5.728;2022-09-17T18:23:19;11.80;99.90
71155;DHT22;59375;53.216;5.728;2022-09-17T18:26:13;11.90;99.90
71155;DHT22;59375;53.216;5.728;2022-09-17T18:28:39;12.00;99.90
71155;DHT22;59375;53.216;5.728;2022-09-17T18:31:20;12.00;99.90
71155;DHT22;59375;53.216;5.728;2022-09-17T18:33:46;12.00;99.90
71155;DHT22;59375;53.216;5.728;2022-09-17T18:36:11;12.00;99.90
71155;DHT22;59375;53.216;5.728;2022-09-17T18:38:37;12.00;99.90
71155;DHT22;59375;53.216;5.728;2022-09-17T18:41:09;12.00;99.90
71155;DHT22;59375;53.216;5.728;2022-09-17T18:43:36;12.00;99.90
71155;DHT22;59375;53.216;5.728;2022-09-17T18:46:02;12.00;99.90
71155;DHT22;59375;53.216;5.728;2022-09-17T18:48:28;12.00;99.90
71155;DHT22;59375;53.216;5.728;2022-09-17T18:51:02;12.00;99.90
71155;DHT22;59375;53.216;5.728;2022-09-17T18:53:30;12.00;99.90